Time;durP1;ratioP1;P1;durP2;ratioP2;P2;SDS_P1;SDS_P2;PMS_P1;PMS_P2;Temp;Humidity;BMP_temperature;BMP_pressure;BME280_temperature;BME280_humidity;BME280_pressure;Samples;Min_cycle;Max_cycle;Signal;HPM_P1;HPM_P2
2022/09/24 00:00:18;;;;;;;3.25;2.30;;;20.00;66.40;;;;;;4994290;28;20047;-59
2022/09/24 00:02:44;;;;;;;4.97;2.47;;;20.00;66.40;;;;;;4993808;28;20090;-59
2022/09/24 00:05:09;;;;;;;3.70;2.05;;;20.00;66.40;;;;;;4976527;28;20050;-59
2022/09/24 00:07:35;;;;;;;3.60;1.90;;;19.90;66.40;;;;;;4994162;28;20046;-59
2022/09/24 00:10:01;;;;;;;4.82;2.25;;;20.00;66.40;;;;;;4993771;28;20031;-59
2022/09/24 00:12:27;;;;;;;2.72;1.80;;;19.90;66.40;;;;;;4994007;28;20062;-59
2022/09/24 00:14:53;;;;;;;3.20;2.15;;;20.00;66.40;;;;;;4994122;28;20122;-59
2022/09/24 00:17:18;;;;;;;3.45;2.13;;;19.90;66.40;;;;;;4993338;28;20184;-59
2022/09/24 00:19:44;;;;;;;3.72;2.00;;;19.90;66.40;;;;;;4993845;28;20049;-59
2022/09/24 00:22:10;;;;;;;3.42;2.03;;;19.90;66.40;;;;;;4993575;28;20088;-59
2022/09/24 00:27:20;;;;;;;3.70;2.17;;;19.90;66.40;;;;;;4993687;28;20050;-59
2022/09/24 00:29:45;;;;;;;3.97;2.38;;;19.90;66.40;;;;;;4994020;28;20042;-59
2022/09/24 00:32:12;;;;;;;3.75;1.95;;;19.90;66.40;;;;;;4993058;28;20042;-59
2022/09/24 00:34:37;;;;;;;3.88;2.25;;;19.90;66.50;;;;;;4993598;28;20061;-59
2022/09/24 00:37:03;;;;;;;4.30;2.20;;;19.90;66.40;;;;;;4993944;28;20047;-59
2022/09/24 00:39:28;;;;;;;3.58;2.25;;;19.90;66.40;;;;;;4993008;28;20043;-59
2022/09/24 00:41:54;;;;;;;3.30;1.98;;;19.90;66.50;;;;;;4993140;28;20042;-59
2022/09/24 00:44:38;;;;;;;3.40;2.13;;;19.90;66.40;;;;;;4993234;28;20066;-58
2022/09/24 00:47:03;;;;;;;2.92;2.10;;;19.90;66.40;;;;;;4992732;28;20047;-59
2022/09/24 00:49:29;;;;;;;3.38;1.77;;;19.90;66.40;;;;;;4992402;28;20611;-59
2022/09/24 00:51:54;;;;;;;3.63;2.17;;;19.90;66.40;;;;;;4991919;28;20085;-59
2022/09/24 00:54:22;;;;;;;3.60;2.13;;;19.90;66.40;;;;;;4991904;28;20050;-59
2022/09/24 00:56:48;;;;;;;3.73;2.00;;;19.90;66.40;;;;;;4992145;28;20046;-59
2022/09/24 00:59:16;;;;;;;3.72;2.10;;;19.90;66.40;;;;;;4992362;28;20094;-59
2022/09/24 01:01:42;;;;;;;5.60;2.50;;;19.90;66.40;;;;;;4991865;28;20045;-59
2022/09/24 01:04:08;;;;;;;3.67;1.95;;;19.90;66.50;;;;;;4993273;28;20038;-59
2022/09/24 01:06:33;;;;;;;3.50;2.30;;;19.90;66.40;;;;;;4991663;28;20374;-59
2022/09/24 01:08:59;;;;;;;4.18;2.28;;;19.90;66.40;;;;;;4993035;28;20047;-58
2022/09/24 01:11:29;;;;;;;4.22;2.40;;;19.90;66.40;;;;;;4991472;28;20046;-59
2022/09/24 01:14:10;;;;;;;4.70;2.05;;;19.90;66.40;;;;;;4992698;28;20053;-59
2022/09/24 01:16:58;;;;;;;3.58;2.08;;;19.90;66.40;;;;;;4975982;28;20113;-60
2022/09/24 01:19:45;;;;;;;4.13;2.20;;;19.90;66.40;;;;;;4992949;28;20063;-59
2022/09/24 01:22:43;;;;;;;3.55;2.22;;;19.90;66.50;;;;;;4991712;28;20050;-59
2022/09/24 01:25:27;;;;;;;5.22;2.40;;;19.80;66.40;;;;;;4991801;28;20042;-59
2022/09/24 01:27:58;;;;;;;4.30;2.15;;;19.80;66.40;;;;;;4992457;28;20516;-59
2022/09/24 01:30:24;;;;;;;3.65;2.03;;;19.80;66.40;;;;;;4992298;28;20050;-59
2022/09/24 01:32:59;;;;;;;4.70;2.30;;;19.80;66.40;;;;;;4991707;28;20057;-59
2022/09/24 01:35:41;;;;;;;5.40;2.53;;;19.80;66.40;;;;;;4992016;28;20038;-59
2022/09/24 01:38:18;;;;;;;3.97;2.40;;;19.80;66.40;;;;;;4975536;28;20042;-59
2022/09/24 01:40:44;;;;;;;3.33;2.10;;;19.80;66.30;;;;;;4992634;28;20049;-59
2022/09/24 01:43:10;;;;;;;3.65;2.17;;;19.80;66.40;;;;;;4974290;28;20058;-59
2022/09/24 01:45:37;;;;;;;4.18;2.20;;;19.80;66.40;;;;;;4992538;28;20100;-59
2022/09/24 01:48:03;;;;;;;5.25;2.65;;;19.80;66.30;;;;;;4975725;28;20049;-59
2022/09/24 01:50:36;;;;;;;3.38;1.90;;;19.80;66.40;;;;;;4992043;28;20034;-59
2022/09/24 01:53:07;;;;;;;4.30;2.20;;;19.80;66.40;;;;;;4991558;28;20043;-59
2022/09/24 01:55:37;;;;;;;2.80;2.00;;;19.80;66.40;;;;;;4991159;28;20035;-59
2022/09/24 01:58:15;;;;;;;3.55;2.20;;;19.80;66.40;;;;;;4975009;28;20120;-59
2022/09/24 02:00:43;;;;;;;4.63;2.45;;;19.80;66.40;;;;;;4975474;28;20129;-59
2022/09/24 02:03:19;;;;;;;4.37;2.10;;;19.80;66.40;;;;;;4990370;28;20049;-59
2022/09/24 02:06:14;;;;;;;3.97;2.13;;;19.80;66.40;;;;;;4974981;28;20042;-60
2022/09/24 02:08:42;;;;;;;3.95;2.47;;;19.80;66.40;;;;;;4959501;28;20056;-59
2022/09/24 02:11:15;;;;;;;3.50;2.00;;;19.80;66.40;;;;;;4991445;28;20034;-59
2022/09/24 02:13:45;;;;;;;4.00;2.20;;;19.80;66.40;;;;;;4992829;28;20093;-59
2022/09/24 02:16:15;;;;;;;4.30;2.20;;;19.80;66.40;;;;;;4991027;28;20101;-59
2022/09/24 02:18:42;;;;;;;4.07;2.38;;;19.80;66.40;;;;;;4975080;28;20050;-58
2022/09/24 02:21:09;;;;;;;4.38;2.28;;;19.80;66.40;;;;;;4991080;28;20130;-59
2022/09/24 02:23:36;;;;;;;3.63;2.33;;;19.80;66.40;;;;;;4992089;28;20043;-59
2022/09/24 02:26:02;;;;;;;3.55;2.30;;;19.80;66.40;;;;;;4975054;28;20046;-59
2022/09/24 02:28:28;;;;;;;3.17;2.28;;;19.80;66.40;;;;;;4992278;28;20053;-59
2022/09/24 02:31:06;;;;;;;3.83;2.10;;;19.80;66.40;;;;;;4991723;28;20042;-59
2022/09/24 02:36:17;;;;;;;3.42;2.10;;;19.80;66.40;;;;;;4994547;28;20050;-59
2022/09/24 02:38:45;;;;;;;3.83;2.35;;;19.80;66.40;;;;;;4994561;28;20061;-59
2022/09/24 02:41:10;;;;;;;3.90;2.05;;;19.80;66.40;;;;;;4995189;28;20056;-59
2022/09/24 02:43:36;;;;;;;3.88;2.28;;;19.80;66.40;;;;;;4978496;28;20054;-59
2022/09/24 02:46:01;;;;;;;3.53;2.28;;;19.80;66.40;;;;;;4995284;28;20042;-59
2022/09/24 02:48:27;;;;;;;3.95;2.30;;;19.80;66.40;;;;;;4995778;28;20046;-59
2022/09/24 02:50:53;;;;;;;4.32;2.67;;;19.80;66.40;;;;;;4996057;28;20414;-59
2022/09/24 02:53:18;;;;;;;3.75;2.40;;;19.80;66.40;;;;;;4976914;28;20058;-59
2022/09/24 02:55:44;;;;;;;3.95;2.00;;;19.70;66.40;;;;;;4995879;28;20389;-59
2022/09/24 02:58:10;;;;;;;3.90;2.40;;;19.80;66.40;;;;;;4995513;28;20438;-59
2022/09/24 03:00:35;;;;;;;3.63;2.30;;;19.80;66.40;;;;;;4995013;28;20045;-59
2022/09/24 03:03:01;;;;;;;4.15;2.28;;;19.80;66.40;;;;;;4995779;28;20042;-59
2022/09/24 03:05:26;;;;;;;4.32;2.42;;;19.70;66.40;;;;;;4994916;28;20445;-60
2022/09/24 03:07:52;;;;;;;3.65;2.40;;;19.70;66.40;;;;;;4995240;28;20397;-59
2022/09/24 03:10:17;;;;;;;3.42;2.25;;;19.80;66.40;;;;;;4995000;28;20052;-59
2022/09/24 03:12:43;;;;;;;3.97;2.50;;;19.70;66.40;;;;;;4994893;28;20130;-59
2022/09/24 03:15:09;;;;;;;3.83;2.40;;;19.70;66.30;;;;;;4994646;28;20075;-59
2022/09/24 03:17:35;;;;;;;3.25;2.25;;;19.70;66.40;;;;;;4995572;28;20090;-59
2022/09/24 03:20:01;;;;;;;4.38;2.67;;;19.70;66.40;;;;;;4994853;28;20482;-59
2022/09/24 03:22:26;;;;;;;3.70;2.35;;;19.70;66.40;;;;;;4994331;28;20046;-59
2022/09/24 03:24:52;;;;;;;3.55;2.35;;;19.70;66.30;;;;;;4995489;28;20038;-58
2022/09/24 03:27:18;;;;;;;3.90;2.30;;;19.70;66.40;;;;;;4994157;28;20050;-59
2022/09/24 03:32:32;;;;;;;3.58;2.30;;;19.70;66.40;;;;;;4977315;28;20047;-59
2022/09/24 03:34:59;;;;;;;3.90;2.47;;;19.70;66.40;;;;;;4994107;28;20547;-59
2022/09/24 03:37:26;;;;;;;4.40;2.75;;;19.70;66.40;;;;;;4994868;28;20133;-59
2022/09/24 03:39:52;;;;;;;3.72;2.40;;;19.70;66.40;;;;;;4995027;28;20150;-59
2022/09/24 03:42:17;;;;;;;3.80;2.47;;;19.70;66.40;;;;;;4993465;28;20053;-59
2022/09/24 03:44:43;;;;;;;4.45;2.40;;;19.70;66.40;;;;;;4994173;28;20054;-59
2022/09/24 03:47:09;;;;;;;4.00;2.50;;;19.70;66.40;;;;;;4994283;28;20574;-60
2022/09/24 03:49:34;;;;;;;3.88;2.45;;;19.70;66.40;;;;;;4994096;28;20049;-60
2022/09/24 03:52:00;;;;;;;4.10;2.40;;;19.70;66.40;;;;;;4994560;28;20514;-59
2022/09/24 03:54:25;;;;;;;4.47;2.47;;;19.70;66.40;;;;;;4976345;28;20453;-59
2022/09/24 03:56:51;;;;;;;4.00;2.50;;;19.70;66.40;;;;;;4993472;28;20058;-59
2022/09/24 03:59:17;;;;;;;4.65;3.05;;;19.70;66.40;;;;;;4994252;28;20101;-59
2022/09/24 04:01:42;;;;;;;4.10;2.35;;;19.70;66.40;;;;;;4988933;28;20390;-59
2022/09/24 04:04:08;;;;;;;4.03;2.67;;;19.70;66.40;;;;;;4990110;28;20062;-59
2022/09/24 04:06:34;;;;;;;3.45;2.13;;;19.70;66.40;;;;;;4993964;28;20066;-59
2022/09/24 04:08:59;;;;;;;4.22;2.55;;;19.70;66.40;;;;;;4993331;28;20093;-59
2022/09/24 04:11:25;;;;;;;5.53;2.72;;;19.70;66.40;;;;;;4976037;28;20292;-59
2022/09/24 04:13:51;;;;;;;4.40;2.95;;;19.70;66.40;;;;;;4994512;28;20113;-59
2022/09/24 04:16:16;;;;;;;3.67;2.70;;;19.70;66.40;;;;;;4975814;28;20374;-59
2022/09/24 04:18:42;;;;;;;4.40;2.70;;;19.70;66.40;;;;;;4993775;28;20042;-59
2022/09/24 04:21:07;;;;;;;4.43;2.40;;;19.70;66.40;;;;;;4993712;28;20437;-60
2022/09/24 04:23:33;;;;;;;4.30;2.50;;;19.70;66.40;;;;;;4976125;28;20046;-60
2022/09/24 04:26:01;;;;;;;4.68;2.67;;;19.70;66.40;;;;;;4993547;28;20449;-60
2022/09/24 04:28:30;;;;;;;;;;;19.70;67.00;;;;;;4994311;28;20042;-60
2022/09/24 04:30:55;;;;;;;;;;;19.60;66.30;;;;;;4994072;28;20376;-60
2022/09/24 04:33:21;;;;;;;4.35;2.65;;;19.60;66.30;;;;;;4993483;28;20040;-59
2022/09/24 04:35:46;;;;;;;4.78;3.00;;;19.60;66.40;;;;;;4993887;28;20172;-60
2022/09/24 04:38:12;;;;;;;3.95;2.38;;;19.60;66.40;;;;;;4992942;28;20122;-59
2022/09/24 04:40:38;;;;;;;4.72;2.60;;;19.60;66.70;;;;;;4993420;28;20092;-58
2022/09/24 04:43:04;;;;;;;4.75;2.58;;;19.60;66.50;;;;;;4975811;28;20408;-58
2022/09/24 04:45:31;;;;;;;4.82;2.92;;;19.60;66.40;;;;;;4992741;28;20054;-59
2022/09/24 04:47:56;;;;;;;3.88;2.45;;;19.60;66.40;;;;;;4993653;28;20042;-58
2022/09/24 04:50:27;;;;;;;4.43;2.90;;;19.60;66.50;;;;;;4993286;28;20465;-58
2022/09/24 04:52:54;;;;;;;4.68;2.78;;;19.60;66.40;;;;;;4993085;28;20116;-58
2022/09/24 04:55:19;;;;;;;4.22;2.70;;;19.60;66.40;;;;;;4992442;28;20052;-59
2022/09/24 04:57:45;;;;;;;5.63;3.15;;;19.60;66.40;;;;;;4993326;28;20042;-59
2022/09/24 05:00:14;;;;;;;3.92;2.70;;;19.60;66.50;;;;;;4992336;28;20092;-59
2022/09/24 05:02:40;;;;;;;4.10;2.85;;;19.60;66.40;;;;;;4993781;28;20034;-59
2022/09/24 05:05:06;;;;;;;5.57;3.20;;;19.60;66.50;;;;;;4992710;28;20045;-59
2022/09/24 05:07:31;;;;;;;5.68;3.03;;;19.60;66.50;;;;;;4993104;28;20121;-59
2022/09/24 05:09:57;;;;;;;4.40;2.67;;;19.60;66.50;;;;;;4993002;28;20531;-59
2022/09/24 05:12:23;;;;;;;4.45;2.70;;;19.60;66.50;;;;;;4992637;28;20086;-59
2022/09/24 05:14:48;;;;;;;5.07;2.92;;;19.60;66.50;;;;;;4992933;28;20512;-59
2022/09/24 05:17:14;;;;;;;5.00;3.00;;;19.60;66.50;;;;;;4992783;28;20101;-60
2022/09/24 05:19:39;;;;;;;5.60;3.03;;;19.60;66.50;;;;;;4992561;28;20038;-60
2022/09/24 05:22:05;;;;;;;5.20;3.08;;;19.60;66.50;;;;;;4992675;28;20050;-60
2022/09/24 05:24:30;;;;;;;4.22;2.85;;;19.60;66.50;;;;;;4992959;28;20069;-60
2022/09/24 05:27:09;;;;;;;4.90;2.67;;;19.60;66.50;;;;;;4992487;28;20042;-60
2022/09/24 05:29:41;;;;;;;;;;;19.60;66.50;;;;;;4993273;28;20125;-60
2022/09/24 05:32:11;;;;;;;4.13;2.58;;;19.60;66.50;;;;;;4992699;28;19922;-60
2022/09/24 05:34:37;;;;;;;4.55;2.95;;;19.60;66.50;;;;;;4991942;28;20053;-60
2022/09/24 05:37:03;;;;;;;4.85;2.72;;;19.60;66.60;;;;;;4992763;28;20039;-60
2022/09/24 05:39:28;;;;;;;3.83;2.53;;;19.60;66.60;;;;;;4992667;28;20042;-60
2022/09/24 05:41:55;;;;;;;6.10;2.70;;;19.60;66.50;;;;;;4992038;28;20050;-60
2022/09/24 05:44:21;;;;;;;4.35;2.72;;;19.60;66.50;;;;;;4992458;28;20058;-60
2022/09/24 05:46:50;;;;;;;3.95;2.60;;;19.60;66.50;;;;;;4992727;28;20518;-60
2022/09/24 05:49:16;;;;;;;3.80;2.70;;;19.60;66.50;;;;;;4991361;28;20465;-60
2022/09/24 05:51:41;;;;;;;4.50;2.58;;;19.60;66.50;;;;;;4992694;28;20121;-60
2022/09/24 05:54:07;;;;;;;4.70;3.00;;;19.70;66.60;;;;;;4992497;28;20206;-60
2022/09/24 05:56:33;;;;;;;6.20;3.38;;;19.70;66.60;;;;;;4974770;28;20086;-61
2022/09/24 05:58:59;;;;;;;5.18;3.25;;;19.70;66.60;;;;;;4992681;28;20047;-61
2022/09/24 06:01:28;;;;;;;5.45;3.35;;;19.70;66.70;;;;;;4991979;28;20116;-60
2022/09/24 06:03:55;;;;;;;7.05;3.33;;;19.70;66.60;;;;;;4992235;28;20043;-61
2022/09/24 06:06:21;;;;;;;7.78;3.40;;;19.70;66.70;;;;;;4992644;28;20136;-61
2022/09/24 06:08:46;;;;;;;6.75;3.47;;;19.70;66.80;;;;;;4996259;28;20043;-61
2022/09/24 06:11:13;;;;;;;9.82;3.75;;;19.70;66.80;;;;;;4995785;28;20050;-61
2022/09/24 06:13:38;;;;;;;8.32;3.65;;;19.80;66.90;;;;;;4996491;28;20082;-61
2022/09/24 06:16:08;;;;;;;7.53;3.17;;;19.80;67.00;;;;;;4995949;28;20121;-61
2022/09/24 06:18:35;;;;;;;6.72;3.60;;;19.80;67.20;;;;;;4996315;28;20097;-61
2022/09/24 06:21:06;;;;;;;8.32;3.25;;;19.80;67.30;;;;;;4979008;28;20050;-61
2022/09/24 06:23:32;;;;;;;6.53;3.47;;;19.90;67.40;;;;;;4995941;28;20470;-61
2022/09/24 06:25:58;;;;;;;6.45;3.42;;;19.90;68.00;;;;;;4996213;28;20050;-61
2022/09/24 06:28:27;;;;;;;7.78;3.50;;;19.90;67.40;;;;;;4994728;28;20390;-61
2022/09/24 06:30:52;;;;;;;6.88;3.25;;;19.90;67.50;;;;;;4988450;28;20089;-61
2022/09/24 06:33:19;;;;;;;5.63;3.25;;;19.90;67.60;;;;;;4995998;28;20070;-62
2022/09/24 06:35:44;;;;;;;6.70;3.20;;;20.00;67.60;;;;;;4993038;28;20130;-61
2022/09/24 06:38:11;;;;;;;8.95;3.78;;;20.00;67.60;;;;;;4982857;28;20461;-60
2022/09/24 06:40:37;;;;;;;7.88;3.97;;;20.00;68.30;;;;;;4976348;28;20087;-60
2022/09/24 06:43:04;;;;;;;5.72;2.80;;;20.00;67.70;;;;;;4975987;28;20379;-61
2022/09/24 06:45:30;;;;;;;5.25;3.28;;;20.00;67.70;;;;;;4975290;28;20051;-61
2022/09/24 06:47:58;;;;;;;7.50;3.80;;;20.10;67.70;;;;;;4959076;28;20058;-64
2022/09/24 06:50:25;;;;;;;;;;;20.10;67.70;;;;;;4976534;28;20065;-61
2022/09/24 06:52:50;;;;;;;7.28;3.63;;;20.10;67.70;;;;;;4975622;28;19922;-61
2022/09/24 06:55:16;;;;;;;7.22;3.72;;;20.10;67.70;;;;;;4975942;28;20134;-61
2022/09/24 06:57:42;;;;;;;9.38;4.47;;;20.10;67.70;;;;;;4975392;28;20057;-60
2022/09/24 07:00:08;;;;;;;8.90;4.47;;;20.10;67.80;;;;;;4975828;28;20050;-61
2022/09/24 07:02:34;;;;;;;7.53;3.90;;;20.20;68.60;;;;;;4975979;28;20054;-61
2022/09/24 07:05:00;;;;;;;10.35;4.53;;;20.20;68.00;;;;;;4975819;28;20050;-60
2022/09/24 07:07:28;;;;;;;7.97;4.30;;;20.20;68.10;;;;;;4975120;28;20050;-61
2022/09/24 07:09:55;;;;;;;11.70;4.70;;;20.20;68.10;;;;;;4976217;28;20070;-61
2022/09/24 07:12:21;;;;;;;8.75;4.32;;;20.20;68.10;;;;;;4975411;28;20066;-61
2022/09/24 07:14:46;;;;;;;8.93;4.60;;;20.20;68.10;;;;;;4974701;28;20038;-61
2022/09/24 07:17:12;;;;;;;10.13;4.07;;;20.30;68.20;;;;;;4977740;28;20045;-60
2022/09/24 07:19:38;;;;;;;12.50;4.68;;;20.30;68.30;;;;;;4985218;28;20470;-61
2022/09/24 07:22:04;;;;;;;8.27;4.43;;;20.30;68.30;;;;;;4993460;28;20042;-61
2022/09/24 07:24:29;;;;;;;11.02;4.43;;;20.30;68.20;;;;;;4995214;28;20047;-61
2022/09/24 07:26:55;;;;;;;9.43;4.85;;;20.30;68.20;;;;;;4994354;28;20046;-61
2022/09/24 07:29:21;;;;;;;10.50;4.55;;;20.30;68.10;;;;;;4994056;28;20057;-61
2022/09/24 07:31:47;;;;;;;10.93;4.75;;;20.30;68.00;;;;;;4995762;28;20089;-61
2022/09/24 07:34:13;;;;;;;8.52;4.70;;;20.30;67.90;;;;;;4994572;28;20060;-61
2022/09/24 07:36:41;;;;;;;11.70;4.40;;;20.30;67.80;;;;;;4995649;28;20062;-61
2022/09/24 07:39:07;;;;;;;11.65;4.60;;;20.30;67.80;;;;;;4994965;28;20374;-61
2022/09/24 07:41:33;;;;;;;10.48;4.53;;;20.30;67.80;;;;;;4994593;28;20047;-61
2022/09/24 07:43:59;;;;;;;8.35;4.75;;;20.30;67.80;;;;;;4995031;28;20050;-61
2022/09/24 07:46:25;;;;;;;8.52;4.22;;;20.30;67.80;;;;;;4995028;28;20419;-60
2022/09/24 07:48:56;;;;;;;8.93;4.43;;;20.30;67.80;;;;;;4994735;28;20144;-60
2022/09/24 07:51:23;;;;;;;8.50;3.92;;;20.30;67.80;;;;;;4994999;28;20561;-60
2022/09/24 07:53:48;;;;;;;10.88;5.00;;;20.30;67.80;;;;;;4994829;28;20058;-61
2022/09/24 07:56:14;;;;;;;9.25;4.85;;;20.30;67.80;;;;;;4994029;28;20047;-60
2022/09/24 07:58:39;;;;;;;8.40;4.47;;;20.30;67.80;;;;;;4995121;28;20042;-61
2022/09/24 08:01:05;;;;;;;8.00;4.30;;;20.20;68.40;;;;;;4994606;28;20042;-61
2022/09/24 08:03:31;;;;;;;8.63;4.63;;;20.30;67.80;;;;;;4994587;28;20085;-61
2022/09/24 08:05:58;;;;;;;7.53;4.00;;;20.30;67.80;;;;;;4995167;28;20073;-61
2022/09/24 08:08:24;;;;;;;11.30;4.32;;;20.30;67.80;;;;;;4994228;28;20100;-61
2022/09/24 08:10:50;;;;;;;7.90;4.35;;;20.30;67.80;;;;;;4994516;28;20034;-61
2022/09/24 08:13:15;;;;;;;8.25;4.13;;;20.30;68.40;;;;;;4994484;28;20058;-61
2022/09/24 08:15:41;;;;;;;8.10;4.50;;;20.30;67.80;;;;;;4994188;28;20053;-61
2022/09/24 08:18:07;;;;;;;9.65;4.72;;;20.30;67.80;;;;;;4994447;28;20038;-61
2022/09/24 08:20:32;;;;;;;8.95;4.97;;;20.30;67.80;;;;;;4994860;28;20038;-61
2022/09/24 08:23:02;;;;;;;7.90;4.28;;;20.30;67.80;;;;;;4993745;28;20097;-61
2022/09/24 08:25:27;;;;;;;7.43;4.30;;;20.30;67.80;;;;;;4993963;28;20043;-61
2022/09/24 08:27:53;;;;;;;6.53;4.18;;;20.30;67.80;;;;;;4994503;28;20061;-61
2022/09/24 08:30:20;;;;;;;7.47;4.18;;;20.30;68.40;;;;;;4993267;28;20046;-61
2022/09/24 08:32:47;;;;;;;8.05;4.15;;;20.20;67.80;;;;;;4994634;28;20481;-61
2022/09/24 08:35:14;;;;;;;7.10;4.00;;;20.20;67.80;;;;;;4994203;28;20043;-61
2022/09/24 08:37:40;;;;;;;8.53;4.73;;;20.30;67.80;;;;;;4993596;28;20085;-60
2022/09/24 08:40:06;;;;;;;9.00;4.45;;;20.20;67.80;;;;;;4994107;28;20345;-61
2022/09/24 08:42:36;;;;;;;7.18;4.18;;;20.20;67.80;;;;;;4994200;28;20058;-61
2022/09/24 08:47:57;;;;;;;7.22;4.00;;;20.30;67.80;;;;;;4993196;28;20046;-61
2022/09/24 08:50:33;;;;;;;8.05;3.95;;;20.30;67.80;;;;;;4992063;28;20105;-60
2022/09/24 08:53:11;;;;;;;7.82;3.85;;;20.20;67.80;;;;;;4993963;28;20165;-60
2022/09/24 08:55:47;;;;;;;9.38;4.10;;;20.30;67.80;;;;;;4994176;28;20047;-60
2022/09/24 08:58:33;;;;;;;6.40;3.72;;;20.20;67.80;;;;;;4991793;28;20042;-61
2022/09/24 09:01:10;;;;;;;6.68;3.92;;;20.20;67.80;;;;;;4993842;28;20054;-61
2022/09/24 09:03:52;;;;;;;7.15;4.13;;;20.20;67.80;;;;;;4994037;28;20581;-60
2022/09/24 09:06:35;;;;;;;6.97;3.88;;;20.20;67.70;;;;;;4991668;28;20046;-60
2022/09/24 09:09:11;;;;;;;6.60;4.25;;;20.20;67.80;;;;;;4993693;28;20057;-60
2022/09/24 09:11:37;;;;;;;7.78;4.03;;;20.20;67.80;;;;;;4992123;28;20054;-60
2022/09/24 09:14:13;;;;;;;8.68;4.40;;;20.20;67.80;;;;;;4993644;28;20466;-61
2022/09/24 09:16:45;;;;;;;7.72;3.55;;;20.20;67.80;;;;;;4992246;28;20421;-60
2022/09/24 09:19:12;;;;;;;9.75;4.20;;;20.20;68.40;;;;;;4992753;28;20130;-60
2022/09/24 09:21:43;;;;;;;6.72;4.18;;;20.20;67.80;;;;;;4992106;28;20089;-61
2022/09/24 09:24:39;;;;;;;6.47;3.95;;;20.20;67.80;;;;;;4993427;28;20092;-61
2022/09/24 09:27:08;;;;;;;6.30;3.92;;;20.30;67.80;;;;;;4984496;28;20134;-61
2022/09/24 09:29:34;;;;;;;6.45;4.00;;;20.30;67.80;;;;;;4992221;28;20069;-61
2022/09/24 09:32:03;;;;;;;7.30;4.25;;;20.30;67.80;;;;;;4992657;28;20417;-60
2022/09/24 09:35:00;;;;;;;8.20;4.22;;;20.30;67.80;;;;;;4992476;28;20046;-61
2022/09/24 09:37:32;;;;;;;6.95;3.97;;;20.30;67.80;;;;;;4991955;28;20532;-60
2022/09/24 09:40:22;;;;;;;6.43;3.78;;;20.30;67.80;;;;;;4991593;28;20052;-60
2022/09/24 09:42:48;;;;;;;6.47;3.80;;;20.30;67.80;;;;;;4992340;28;20502;-61
2022/09/24 09:45:13;;;;;;;7.43;4.07;;;20.30;67.80;;;;;;4992898;28;20042;-61
2022/09/24 09:47:42;;;;;;;7.82;3.78;;;20.30;67.80;;;;;;4992771;28;20050;-60
2022/09/24 09:50:27;;;;;;;6.03;3.67;;;20.30;67.80;;;;;;4991771;28;20046;-60
2022/09/24 09:52:54;;;;;;;7.22;4.20;;;20.30;67.80;;;;;;4992384;28;20548;-60
2022/09/24 09:55:28;;;;;;;5.60;3.75;;;20.30;67.80;;;;;;4990711;28;20505;-61
2022/09/24 09:58:16;;;;;;;6.85;3.83;;;20.30;67.90;;;;;;4992345;28;20121;-61
2022/09/24 10:00:47;;;;;;;6.20;3.70;;;20.30;67.80;;;;;;4991622;28;20398;-61
2022/09/24 10:03:27;;;;;;;6.15;3.78;;;20.30;67.80;;;;;;4992648;28;20053;-60
2022/09/24 10:06:00;;;;;;;7.20;4.10;;;20.30;67.80;;;;;;4993345;28;20042;-61
2022/09/24 10:08:26;;;;;;;6.25;3.88;;;20.30;67.70;;;;;;4991105;28;20046;-61
2022/09/24 10:10:56;;;;;;;4.97;3.17;;;20.30;67.70;;;;;;4993278;28;20104;-62
2022/09/24 10:13:22;;;;;;;6.25;3.97;;;20.30;67.70;;;;;;4993108;28;20406;-61
2022/09/24 10:16:04;;;;;;;8.20;3.97;;;20.40;68.40;;;;;;4991131;28;20494;-61
2022/09/24 10:18:37;;;;;;;6.22;3.67;;;20.40;67.80;;;;;;4991821;28;20038;-62
2022/09/24 10:21:04;;;;;;;6.82;3.60;;;20.30;68.40;;;;;;4992072;28;20100;-61
2022/09/24 10:23:48;;;;;;;5.20;3.33;;;20.40;67.80;;;;;;4990841;28;20400;-60
2022/09/24 10:26:13;;;;;;;6.32;3.40;;;20.40;67.80;;;;;;4991677;28;20034;-61
2022/09/24 10:31:35;;;;;;;6.68;3.92;;;20.40;67.80;;;;;;4993147;28;20052;-61
2022/09/24 10:34:00;;;;;;;6.40;3.72;;;20.30;67.80;;;;;;4975656;28;20054;-61
2022/09/24 10:36:27;;;;;;;6.07;3.75;;;20.40;68.40;;;;;;4974314;28;20565;-59
2022/09/24 10:39:13;;;;;;;5.97;3.45;;;20.40;67.80;;;;;;4992880;28;20050;-59
2022/09/24 10:41:46;;;;;;;5.50;3.70;;;20.40;67.80;;;;;;4992809;28;20047;-58
2022/09/24 10:44:11;;;;;;;6.20;3.63;;;20.40;67.80;;;;;;4991858;28;20066;-59
2022/09/24 10:46:49;;;;;;;6.07;3.60;;;20.40;67.70;;;;;;4992889;28;20039;-60
2022/09/24 10:49:37;;;;;;;7.00;4.10;;;20.40;67.80;;;;;;4991457;28;20050;-60
2022/09/24 10:52:11;;;;;;;6.15;3.50;;;20.40;67.70;;;;;;4990570;28;20050;-60
2022/09/24 10:55:01;;;;;;;4.90;3.47;;;20.40;67.80;;;;;;4994932;28;20531;-60
2022/09/24 10:57:31;;;;;;;5.75;3.20;;;20.40;67.80;;;;;;4993808;28;20514;-60
2022/09/24 11:00:20;;;;;;;6.25;3.80;;;20.40;67.80;;;;;;4994828;28;20468;-60
2022/09/24 11:03:04;;;;;;;5.60;3.30;;;20.50;67.80;;;;;;4978955;28;20053;-60
2022/09/24 11:05:36;;;;;;;6.38;3.40;;;20.50;67.80;;;;;;4995244;28;20065;-60
2022/09/24 11:08:17;;;;;;;5.55;3.20;;;20.50;67.80;;;;;;4994611;28;20450;-59
2022/09/24 11:10:50;;;;;;;5.38;3.40;;;20.50;67.80;;;;;;4994817;28;20085;-60
2022/09/24 11:13:24;;;;;;;4.82;3.10;;;20.50;67.80;;;;;;4994360;28;20494;-60
2022/09/24 11:16:07;;;;;;;5.10;2.92;;;20.50;67.80;;;;;;4994633;28;20417;-60
2022/09/24 11:19:03;;;;;;;6.70;3.20;;;20.50;67.80;;;;;;4993846;28;20046;-60
2022/09/24 11:21:41;;;;;;;5.35;3.00;;;20.50;67.70;;;;;;4994715;28;20047;-60
2022/09/24 11:24:37;;;;;;;4.82;2.67;;;20.50;67.80;;;;;;4994299;28;20398;-61
2022/09/24 11:27:37;;;;;;;5.43;3.15;;;20.50;67.70;;;;;;4995015;28;20062;-60
2022/09/24 11:30:16;;;;;;;5.70;3.20;;;20.50;67.70;;;;;;4995668;28;20062;-61
2022/09/24 11:33:04;;;;;;;5.35;2.78;;;20.50;67.80;;;;;;4977366;28;20401;-61
2022/09/24 11:35:34;;;;;;;6.30;3.17;;;20.50;67.80;;;;;;4995454;28;20109;-61
2022/09/24 11:38:05;;;;;;;5.90;2.95;;;20.50;67.80;;;;;;4995566;28;20049;-61
2022/09/24 11:40:50;;;;;;;4.05;2.50;;;20.50;67.90;;;;;;4994611;28;20049;-60
2022/09/24 11:43:51;;;;;;;6.25;3.05;;;20.50;67.80;;;;;;4994781;28;20069;-60
2022/09/24 11:46:33;;;;;;;5.03;2.95;;;20.50;67.80;;;;;;4993484;28;20509;-61
2022/09/24 11:49:23;;;;;;;5.78;3.10;;;20.50;67.80;;;;;;4995508;28;20090;-61
2022/09/24 11:52:14;;;;;;;4.63;2.60;;;20.50;67.90;;;;;;4995067;28;20050;-60
2022/09/24 11:55:05;;;;;;;5.45;2.80;;;20.50;67.90;;;;;;4993411;28;20050;-60
2022/09/24 11:57:38;;;;;;;5.50;2.63;;;20.50;67.90;;;;;;4966952;28;20429;-61
2022/09/24 12:00:06;;;;;;;5.75;2.63;;;20.50;67.90;;;;;;4993300;28;20070;-61
2022/09/24 12:02:42;;;;;;;5.60;2.80;;;20.50;67.90;;;;;;4993947;28;20430;-61
2022/09/24 12:06:15;;;;;;;3.88;2.33;;;20.50;67.90;;;;;;4993089;28;20100;-61
2022/09/24 12:08:43;;;;;;;4.97;2.53;;;20.50;67.80;;;;;;4960829;28;20142;-61
2022/09/24 12:11:40;;;;;;;4.73;2.80;;;20.50;67.90;;;;;;4990094;28;20508;-61
2022/09/24 12:14:17;;;;;;;3.92;2.40;;;20.50;67.80;;;;;;4993060;28;20332;-61
2022/09/24 12:16:44;;;;;;;4.40;2.60;;;20.50;67.80;;;;;;4994581;28;20078;-61
2022/09/24 12:19:20;;;;;;;3.65;2.15;;;20.50;67.80;;;;;;4993277;28;20089;-61
2022/09/24 12:21:46;;;;;;;5.60;2.53;;;20.50;67.80;;;;;;4992504;28;20569;-61
2022/09/24 12:24:21;;;;;;;4.07;2.33;;;20.50;67.80;;;;;;4993204;28;20058;-61
2022/09/24 12:26:47;;;;;;;4.95;2.40;;;20.50;67.80;;;;;;4993294;28;20049;-61
2022/09/24 12:35:18;;;;;;;3.72;2.03;;;20.50;67.80;;;;;;4992498;28;20482;-61
2022/09/24 12:37:43;;;;;;;3.97;2.20;;;20.60;67.90;;;;;;4994192;28;20083;-60
2022/09/24 12:40:18;;;;;;;3.85;2.20;;;20.60;67.90;;;;;;4994087;28;20506;-61
2022/09/24 12:42:47;;;;;;;4.18;2.40;;;20.60;67.80;;;;;;4992372;28;20108;-61
2022/09/24 12:45:14;;;;;;;4.03;2.00;;;20.60;67.80;;;;;;4989187;28;20058;-61
2022/09/24 12:47:46;;;;;;;3.97;2.13;;;20.60;67.80;;;;;;4974792;28;20046;-61
2022/09/24 12:50:19;;;;;;;5.18;2.20;;;20.60;67.80;;;;;;4988280;28;20150;-61
2022/09/24 12:52:44;;;;;;;4.18;1.80;;;20.60;67.80;;;;;;4973700;28;20058;-60
2022/09/24 12:55:29;;;;;;;4.30;2.63;;;20.60;67.80;;;;;;4989448;28;20368;-60
2022/09/24 12:58:02;;;;;;;2.88;1.58;;;20.60;68.40;;;;;;4973834;28;20043;-60
2022/09/24 13:00:38;;;;;;;4.10;2.10;;;20.60;67.90;;;;;;4988510;28;20042;-60
2022/09/24 13:03:05;;;;;;;3.50;2.10;;;20.60;67.90;;;;;;4974656;28;20046;-60
2022/09/24 13:05:39;;;;;;;5.53;1.90;;;20.50;67.80;;;;;;4973461;28;20057;-60
2022/09/24 13:08:15;;;;;;;4.35;2.13;;;20.60;67.90;;;;;;4974210;28;20043;-61
2022/09/24 13:11:15;;;;;;;4.30;1.90;;;20.60;67.90;;;;;;4973632;28;20138;-60
2022/09/24 13:13:42;;;;;;;3.60;1.92;;;20.60;67.90;;;;;;4985732;28;20372;-61
2022/09/24 13:16:18;;;;;;;3.55;1.77;;;20.60;68.00;;;;;;4988248;28;20588;-60
2022/09/24 13:18:51;;;;;;;3.10;1.75;;;20.60;68.00;;;;;;4988009;28;20049;-60
2022/09/24 13:21:20;;;;;;;5.28;1.90;;;20.60;68.60;;;;;;4988519;28;20093;-61
2022/09/24 13:23:47;;;;;;;3.13;1.65;;;20.60;68.00;;;;;;4988862;28;20051;-61